To NAV CANADA Home Page Login to a new session Search on AWWS site Disclaimer Vers la page française équivalente Tips FAQ What's new on the site To the Forecasts and Observations / NOTAM section To "File a Flight Plan" website Publications and other links Update of the User's profile FIC Telephone Numbers My Weather Data Folder Route Weather Data Regional Weather Data Local Weather Data To the Forecasts and Observations / NOTAM section
Request Generated 11/13/2018 at 18:25:47 UTC . Weather information available at that time is displayed.

METAR/TAF

ABBOTSFORD/BC    

METAR CYXX 131800Z 29004KT 30SM FEW150 SCT220 BKN240 07/03 A3035 RMK AC1CI3CC2 AC TR ACSL HZ SLP279=
SPECI CYXX 131706Z 36003KT 30SM FEW150 SCT240 06/03 A3034 RMK AC1CI4 AC TR HZ SLP279=
METAR CYXX 131700Z VRB02KT 30SM FEW150 SCT240 05/03 A3035 RMK AC1CI4 AC TR SLP280=
METAR CYXX 131600Z 03005KT 30SM FEW150 FEW240 01/00 A3034 RMK AC1CI1 AC TR SLP278=

TAF CYXX 131738Z 1318/1418 VRB03KT P6SM FEW150 SCT240
FM140000 36005KT P6SM SCT040 BKN120 TEMPO 1400/1403 P6SM -RA
BKN040 OVC120
FM140300 01006KT P6SM -RA SCT020 OVC050 TEMPO 1403/1409 4SM -SHRA
BR OVC020
FM140900 02008KT 4SM -RA BR SCT008 BKN012 OVC025
RMK NXT FCST BY 140000Z=
Your time UTC time
Weather data provided by Environment Canada and NAV CANADA